createdAt,value
2023-04-23T00:03:27.392Z,98.95
2023-04-23T00:08:29.707Z,98.96
2023-04-23T00:13:31.725Z,99.63
2023-04-23T00:18:33.321Z,98.88
2023-04-23T00:23:35.042Z,98.80
2023-04-23T00:28:36.726Z,99.41
2023-04-23T00:33:38.642Z,99.50
2023-04-23T00:38:40.301Z,100.00
2023-04-23T00:43:42.624Z,100.00
2023-04-23T00:48:46.270Z,100.00
2023-04-23T00:53:48.055Z,100.00
2023-04-23T00:58:51.689Z,100.00
2023-04-23T01:03:54.082Z,100.00
2023-04-23T01:08:57.024Z,100.00
2023-04-23T01:13:59.439Z,100.00
2023-04-23T01:19:02.246Z,100.00
2023-04-23T01:24:06.155Z,100.00
2023-04-23T01:29:08.125Z,100.00
2023-04-23T01:34:10.562Z,100.00
2023-04-23T01:39:14.928Z,100.00
2023-04-23T01:44:17.826Z,100.00
2023-04-23T01:49:19.453Z,100.00
2023-04-23T01:54:21.261Z,100.00
2023-04-23T01:59:24.920Z,100.00
2023-04-23T02:04:29.752Z,100.00
2023-04-23T02:09:31.443Z,100.00
2023-04-23T02:14:36.304Z,100.00
2023-04-23T02:19:37.900Z,100.00
2023-04-23T02:24:42.739Z,100.00
2023-04-23T02:29:44.529Z,100.00
2023-04-23T02:34:46.623Z,100.00
2023-04-23T02:39:48.231Z,100.00
2023-04-23T02:44:49.842Z,100.00
2023-04-23T02:49:51.511Z,100.00
2023-04-23T02:54:53.316Z,100.00
2023-04-23T02:59:55.194Z,100.00
2023-04-23T03:05:04.321Z,100.00
2023-04-23T03:10:06.835Z,100.00
2023-04-23T03:15:09.457Z,100.00
2023-04-23T03:20:14.608Z,100.00
2023-04-23T03:25:16.506Z,100.00
2023-04-23T03:30:18.963Z,100.00
2023-04-23T03:35:20.811Z,100.00
2023-04-23T03:40:24.326Z,100.00
2023-04-23T03:45:31.017Z,100.00
2023-04-23T03:50:35.801Z,100.00
2023-04-23T03:55:47.163Z,100.00
2023-04-23T04:00:49.959Z,100.00
2023-04-23T04:05:51.587Z,100.00
2023-04-23T04:10:53.368Z,100.00
2023-04-23T04:15:55.162Z,100.00
2023-04-23T04:20:56.938Z,100.00
2023-04-23T04:25:59.926Z,100.00
2023-04-23T04:31:02.152Z,100.00
2023-04-23T04:36:05.199Z,100.00
2023-04-23T04:41:07.731Z,100.00
2023-04-23T04:46:11.844Z,100.00
2023-04-23T04:51:13.503Z,100.00
2023-04-23T04:56:15.195Z,100.00
2023-04-23T05:01:18.271Z,100.00
2023-04-23T05:06:19.928Z,100.00
2023-04-23T05:11:21.525Z,100.00
2023-04-23T05:16:24.074Z,100.00
2023-04-23T05:21:27.610Z,100.00
2023-04-23T05:26:29.524Z,100.00
2023-04-23T05:31:34.100Z,100.00
2023-04-23T05:36:36.564Z,100.00
2023-04-23T05:41:38.416Z,100.00
2023-04-23T05:46:40.138Z,100.00
2023-04-23T05:51:41.787Z,100.00
2023-04-23T05:56:43.523Z,100.00
2023-04-23T06:01:45.270Z,100.00
2023-04-23T06:06:46.892Z,100.00
2023-04-23T06:11:50.591Z,100.00
2023-04-23T06:16:52.770Z,100.00
2023-04-23T06:21:54.548Z,100.00
2023-04-23T06:26:56.342Z,100.00
2023-04-23T06:32:02.803Z,100.00
2023-04-23T06:37:05.008Z,100.00
2023-04-23T06:42:06.768Z,100.00
2023-04-23T06:47:17.998Z,100.00
2023-04-23T06:52:19.592Z,100.00
2023-04-23T06:57:21.950Z,100.00
2023-04-23T07:02:24.729Z,100.00
2023-04-23T07:07:26.424Z,100.00
2023-04-23T07:12:28.003Z,100.00
2023-04-23T07:17:29.632Z,100.00
2023-04-23T07:22:31.330Z,100.00
2023-04-23T07:27:32.925Z,100.00
2023-04-23T07:32:34.706Z,100.00
2023-04-23T07:37:37.200Z,100.00
2023-04-23T07:42:42.913Z,99.04
2023-04-23T07:47:48.086Z,96.81
2023-04-23T07:52:49.807Z,97.02
2023-04-23T07:57:51.403Z,96.21
2023-04-23T08:02:53.915Z,93.90
2023-04-23T08:07:55.924Z,93.89
2023-04-23T08:12:57.549Z,92.55
2023-04-23T08:17:59.148Z,91.68
2023-04-23T08:23:00.986Z,88.63
2023-04-23T08:28:03.860Z,88.45
2023-04-23T08:33:05.604Z,88.77
2023-04-23T08:38:07.219Z,87.68
2023-04-23T08:43:20.694Z,85.27
2023-04-23T08:48:22.623Z,83.86
2023-04-23T08:53:29.312Z,83.99
2023-04-23T08:58:31.591Z,83.50
2023-04-23T09:03:33.714Z,80.38
2023-04-23T09:08:35.749Z,79.95
2023-04-23T09:13:37.497Z,81.15
2023-04-23T09:18:39.707Z,78.04
2023-04-23T09:23:42.514Z,77.53
2023-04-23T09:28:44.169Z,75.88
2023-04-23T09:33:57.024Z,76.52
2023-04-23T09:38:59.226Z,75.89
2023-04-23T09:44:00.893Z,75.27
2023-04-23T09:49:04.237Z,72.25
2023-04-23T09:54:12.812Z,71.90
2023-04-23T09:59:35.588Z,71.44
2023-04-23T10:04:45.321Z,69.36
2023-04-23T10:09:47.820Z,70.90
2023-04-23T10:14:53.805Z,69.62
2023-04-23T10:19:55.919Z,67.06
2023-04-23T10:24:59.841Z,65.22
2023-04-23T10:30:05.484Z,65.88
2023-04-23T10:35:09.344Z,65.76
2023-04-23T10:40:15.309Z,65.07
2023-04-23T10:50:27.671Z,65.67
2023-04-23T10:55:31.242Z,65.65
2023-04-23T11:00:41.813Z,64.92
2023-04-23T11:05:46.528Z,65.72
2023-04-23T11:10:59.497Z,63.46
2023-04-23T11:16:21.588Z,62.42
2023-04-23T11:21:24.381Z,63.79
2023-04-23T11:26:29.921Z,63.92
2023-04-23T11:31:32.928Z,63.15
2023-04-23T11:36:34.828Z,62.48
2023-04-23T11:41:37.032Z,62.94
2023-04-23T11:46:38.827Z,62.72
2023-04-23T11:51:45.059Z,61.86
2023-04-23T11:56:46.817Z,62.20
2023-04-23T12:01:57.113Z,62.47
2023-04-23T12:06:59.516Z,62.25
2023-04-23T12:12:01.530Z,60.93
2023-04-23T12:17:11.338Z,60.91
2023-04-23T12:22:27.747Z,60.46
2023-04-23T12:27:30.850Z,59.24
2023-04-23T12:32:34.268Z,59.46
2023-04-23T12:37:37.781Z,57.75
2023-04-23T12:42:39.400Z,56.05
2023-04-23T12:47:41.249Z,56.37
2023-04-23T12:52:46.384Z,58.42
2023-04-23T12:57:48.082Z,58.28
2023-04-23T13:02:50.035Z,58.87
2023-04-23T13:07:53.620Z,59.98
2023-04-23T13:13:16.442Z,58.90
2023-04-23T13:18:18.054Z,59.09
2023-04-23T13:23:19.730Z,59.63
2023-04-23T13:28:21.359Z,58.45
2023-04-23T13:33:24.425Z,60.01
2023-04-23T13:38:26.619Z,73.25
2023-04-23T13:43:28.278Z,84.04
2023-04-23T13:48:31.358Z,84.61
2023-04-23T13:53:32.975Z,88.01
2023-04-23T13:58:34.614Z,90.01
2023-04-23T14:03:36.278Z,90.90
2023-04-23T14:08:38.424Z,91.06
2023-04-23T14:13:40.039Z,90.69
2023-04-23T14:18:41.691Z,90.78
2023-04-23T14:23:57.690Z,91.32
2023-04-23T14:29:08.789Z,92.16
2023-04-23T14:34:10.484Z,94.72
2023-04-23T14:39:12.561Z,95.04
2023-04-23T14:44:14.785Z,92.66
2023-04-23T14:49:19.198Z,93.35
2023-04-23T14:54:21.713Z,93.20
2023-04-23T14:59:23.760Z,96.39
2023-04-23T15:04:25.576Z,97.32
2023-04-23T15:09:27.333Z,98.41
2023-04-23T15:14:36.926Z,100.00
2023-04-23T15:19:38.561Z,100.00
2023-04-23T15:24:40.404Z,99.32
2023-04-23T15:29:44.278Z,100.00
2023-04-23T15:34:46.008Z,100.00
2023-04-23T15:39:47.628Z,100.00
2023-04-23T15:44:50.538Z,100.00
2023-04-23T15:49:52.216Z,100.00
2023-04-23T15:54:53.847Z,100.00
2023-04-23T15:59:58.284Z,100.00
2023-04-23T16:05:00.385Z,100.00
2023-04-23T16:10:02.472Z,100.00
2023-04-23T16:15:05.713Z,100.00
2023-04-23T16:20:08.411Z,100.00
2023-04-23T16:25:10.093Z,100.00
2023-04-23T16:30:14.335Z,100.00
2023-04-23T16:35:17.030Z,100.00
2023-04-23T16:40:19.356Z,100.00
2023-04-23T16:45:23.155Z,100.00
2023-04-23T16:50:24.865Z,100.00
2023-04-23T16:55:26.563Z,100.00
2023-04-23T17:00:28.249Z,100.00
2023-04-23T17:05:33.420Z,100.00
2023-04-23T17:10:35.247Z,100.00
2023-04-23T17:15:36.871Z,100.00
2023-04-23T17:20:39.922Z,99.78
2023-04-23T17:25:43.904Z,100.00
2023-04-23T17:30:46.131Z,98.65
2023-04-23T17:35:52.269Z,99.39
2023-04-23T17:40:54.446Z,100.00
2023-04-23T17:45:56.169Z,100.00
2023-04-23T17:50:57.802Z,100.00
2023-04-23T17:56:03.350Z,100.00
2023-04-23T18:01:05.290Z,100.00
2023-04-23T18:06:08.700Z,100.00
2023-04-23T18:11:13.768Z,100.00
2023-04-23T18:16:16.047Z,100.00
2023-04-23T18:21:18.472Z,100.00
2023-04-23T18:26:20.051Z,100.00
2023-04-23T18:31:22.251Z,100.00
2023-04-23T18:36:27.322Z,100.00
2023-04-23T18:41:30.105Z,100.00
2023-04-23T18:46:32.064Z,100.00
2023-04-23T18:51:40.020Z,100.00
2023-04-23T18:56:43.993Z,100.00
2023-04-23T19:01:48.075Z,100.00
2023-04-23T19:06:49.719Z,100.00
2023-04-23T19:11:51.356Z,100.00
2023-04-23T19:16:53.916Z,100.00
2023-04-23T19:21:55.545Z,100.00
2023-04-23T19:26:58.157Z,100.00
2023-04-23T19:31:59.855Z,100.00
2023-04-23T19:37:01.459Z,100.00
2023-04-23T19:42:05.693Z,100.00
2023-04-23T19:47:07.367Z,100.00
2023-04-23T19:52:17.378Z,100.00
2023-04-23T19:57:19.762Z,100.00
2023-04-23T20:02:21.645Z,100.00
2023-04-23T20:07:23.270Z,100.00
2023-04-23T20:12:24.952Z,100.00
2023-04-23T20:17:27.175Z,100.00
2023-04-23T20:22:30.848Z,100.00
2023-04-23T20:27:32.985Z,100.00
2023-04-23T20:32:34.784Z,100.00
2023-04-23T20:37:36.624Z,100.00
2023-04-23T20:42:39.747Z,100.00
2023-04-23T20:47:41.597Z,100.00
2023-04-23T20:52:44.635Z,100.00
2023-04-23T20:57:46.446Z,100.00
2023-04-23T21:02:48.246Z,100.00
2023-04-23T21:07:50.744Z,100.00
2023-04-23T21:12:52.590Z,100.00
2023-04-23T21:17:54.263Z,100.00
2023-04-23T21:22:55.934Z,100.00
2023-04-23T21:27:58.615Z,100.00
2023-04-23T21:33:00.524Z,100.00
2023-04-23T21:38:02.165Z,100.00
2023-04-23T21:43:05.066Z,100.00
2023-04-23T21:48:06.743Z,100.00
2023-04-23T21:53:10.979Z,100.00
2023-04-23T21:58:17.831Z,99.23
2023-04-23T22:03:29.404Z,95.02
2023-04-23T22:08:40.534Z,97.12
2023-04-23T22:13:42.694Z,100.00
2023-04-23T22:18:44.783Z,99.97
2023-04-23T22:23:46.487Z,98.33
2023-04-23T22:28:48.169Z,97.04
2023-04-23T22:33:49.801Z,97.61
2023-04-23T22:38:51.448Z,95.85
2023-04-23T22:43:54.253Z,96.58
2023-04-23T22:48:55.864Z,96.20
2023-04-23T22:53:57.484Z,97.65
2023-04-23T22:58:59.118Z,99.48
2023-04-23T23:04:01.121Z,99.77
2023-04-23T23:09:02.755Z,100.00
2023-04-23T23:14:05.683Z,100.00
2023-04-23T23:19:08.374Z,100.00
2023-04-23T23:24:10.348Z,100.00
2023-04-23T23:29:14.004Z,100.00
2023-04-23T23:34:15.759Z,100.00
2023-04-23T23:39:19.999Z,100.00
2023-04-23T23:44:21.662Z,100.00
2023-04-23T23:49:23.248Z,100.00
2023-04-23T23:54:25.072Z,100.00
2023-04-23T23:59:27.497Z,100.00
